Time;durP1;ratioP1;P1;durP2;ratioP2;P2;SDS_P1;SDS_P2;PMS_P1;PMS_P2;Temp;Humidity;BMP_temperature;BMP_pressure;BME280_temperature;BME280_humidity;BME280_pressure;Samples;Min_cycle;Max_cycle;Signal;HPM_P1;HPM_P2
2022/04/15 00:02:07;;;;;;;;;;;;;;;8.86;59.69;100074.41;4319766;33;20011;-91
2022/04/15 00:04:34;;;;;;;;;;;;;;;8.90;59.70;100073.47;4320205;33;20255;-91
2022/04/15 00:06:59;;;;;;;;;;;;;;;8.81;59.69;100065.88;4319862;33;20015;-90
2022/04/15 00:09:24;;;;;;;;;;;;;;;8.66;59.68;100074.81;4319958;33;19979;-91
2022/04/15 00:11:51;;;;;;;;;;;;;;;8.84;59.69;100073.59;4314462;33;20286;-92
2022/04/15 00:14:17;;;;;;;;;;;;;;;8.61;59.67;100068.84;4307194;33;20039;-94
2022/04/15 00:16:43;;;;;;;;;;;;;;;8.72;59.68;100059.09;4307919;33;20003;-94
2022/04/15 00:19:09;;;;;;;;;;;;;;;8.71;59.68;100060.00;4308079;33;20008;-94
2022/04/15 00:21:35;;;;;;;;;;;;;;;8.61;59.67;100061.91;4307867;33;19991;-93
2022/04/15 00:24:00;;;;;;;;;;;;;;;8.42;59.66;100057.09;4307382;33;20344;-91
2022/04/15 00:26:25;;;;;;;;;;;;;;;8.58;59.67;100061.97;4306989;33;19992;-93
2022/04/15 00:28:52;;;;;;;;;;;;;;;8.42;59.66;100062.28;4307142;33;19984;-91
2022/04/15 00:31:17;;;;;;;;;;;;;;;8.48;59.67;100056.97;4307186;33;20338;-93
2022/04/15 00:33:42;;;;;;;;;;;;;;;8.59;59.68;100052.47;4307654;33;19987;-93
2022/04/15 00:36:08;;;;;;;;;;;;;;;8.51;59.68;100056.91;4311508;33;20047;-94
2022/04/15 00:38:34;;;;;;;;;;;;;;;8.43;59.66;100064.00;4311699;33;24535;-93
2022/04/15 00:40:59;;;;;;;;;;;;;;;8.50;59.66;100053.47;4307207;33;20035;-93
2022/04/15 00:43:24;;;;;;;;;;;;;;;8.41;59.66;100051.06;4307027;33;20134;-93
2022/04/15 00:45:49;;;;;;;;;;;;;;;8.21;59.65;100048.78;4307431;33;20004;-94
2022/04/15 00:48:16;;;;;;;;;;;;;;;8.14;59.65;100051.53;4306940;33;19991;-93
2022/04/15 00:50:42;;;;;;;;;;;;;;;8.01;59.65;100053.44;4307338;33;20003;-93
2022/04/15 00:53:08;;;;;;;;;;;;;;;8.15;59.65;100051.50;4307130;33;19989;-93
2022/04/15 00:55:33;;;;;;;;;;;;;;;8.00;59.64;100049.16;4307295;33;20008;-93
2022/04/15 00:57:59;;;;;;;;;;;;;;;8.20;59.65;100048.81;4307987;33;20043;-95
2022/04/15 01:00:25;;;;;;;;;;;;;;;8.14;59.65;100043.75;4316049;33;19975;-95
2022/04/15 01:02:51;;;;;;;;;;;;;;;8.11;59.65;100044.66;4311512;33;19995;-95
2022/04/15 01:05:16;;;;;;;;;;;;;;;8.01;59.65;100046.53;4307769;33;20018;-96
2022/04/15 01:07:42;;;;;;;;;;;;;;;8.05;59.64;100047.34;4308154;33;19980;-95
2022/04/15 01:10:08;;;;;;;;;;;;;;;7.99;59.65;100042.25;4309806;33;20318;-94
2022/04/15 01:12:35;;;;;;;;;;;;;;;7.95;59.64;100048.38;4309032;33;20048;-94
2022/04/15 01:15:00;;;;;;;;;;;;;;;7.80;59.63;100036.50;4309178;33;20604;-93
2022/04/15 01:17:29;;;;;;;;;;;;;;;7.75;59.62;100034.88;4308880;33;20032;-93
2022/04/15 01:19:54;;;;;;;;;;;;;;;7.68;59.63;100034.97;4309102;33;20381;-93
2022/04/15 01:22:21;;;;;;;;;;;;;;;7.77;59.63;100030.53;4308663;33;19992;-94
2022/04/15 01:24:46;;;;;;;;;;;;;;;7.77;59.63;100027.94;4309033;33;20604;-94
2022/04/15 01:27:21;;;;;;;;;;;;;;;7.60;59.61;100030.81;4308657;33;20035;-92
2022/04/15 01:29:46;;;;;;;;;;;;;;;7.66;59.61;100023.78;4309643;33;20055;-95
2022/04/15 01:32:11;;;;;;;;;;;;;;;7.59;59.61;100023.91;4309359;33;20336;-94
2022/04/15 01:34:36;;;;;;;;;;;;;;;7.70;59.62;100020.25;4308921;33;19992;-94
2022/04/15 01:37:02;;;;;;;;;;;;;;;7.47;59.61;100014.59;4309527;33;20020;-96
2022/04/15 01:39:27;;;;;;;;;;;;;;;7.43;59.60;100019.84;4308084;33;19980;-92
2022/04/15 01:41:52;;;;;;;;;;;;;;;7.44;59.61;100019.81;4307834;33;20018;-93
2022/04/15 01:44:18;;;;;;;;;;;;;;;7.51;59.61;100020.56;4308549;33;20023;-95
2022/04/15 01:46:43;;;;;;;;;;;;;;;7.54;59.61;100023.97;4309303;33;20024;-94
2022/04/15 01:49:08;;;;;;;;;;;;;;;7.71;59.62;100026.31;4309276;33;19984;-95
2022/04/15 01:51:34;;;;;;;;;;;;;;;7.86;59.63;100018.28;4309069;33;20040;-95
2022/04/15 01:54:00;;;;;;;;;;;;;;;7.71;59.62;100018.53;4309610;33;20008;-95
2022/04/15 01:56:25;;;;;;;;;;;;;;;7.86;59.63;100015.69;4309268;33;20251;-95
2022/04/15 01:58:50;;;;;;;;;;;;;;;7.79;59.63;100014.06;4309241;33;19983;-94
2022/04/15 02:01:15;;;;;;;;;;;;;;;7.83;59.62;100013.16;4309201;33;20615;-95
2022/04/15 02:03:41;;;;;;;;;;;;;;;7.92;59.64;99999.19;4308521;33;21894;-94
2022/04/15 02:06:06;;;;;;;;;;;;;;;7.93;59.63;100006.94;4308402;33;22854;-94
2022/04/15 02:08:31;;;;;;;;;;;;;;;7.65;59.61;100006.53;4309069;33;19988;-94
2022/04/15 02:10:56;;;;;;;;;;;;;;;7.64;59.62;100011.75;4308900;33;20014;-94
2022/04/15 02:13:22;;;;;;;;;;;;;;;7.58;59.61;100009.25;4309058;33;20040;-94
2022/04/15 02:15:47;;;;;;;;;;;;;;;7.63;59.62;100010.03;4309112;33;20091;-95
2022/04/15 02:18:13;;;;;;;;;;;;;;;7.65;59.61;100003.09;4308748;33;27336;-95
2022/04/15 02:20:38;;;;;;;;;;;;;;;7.50;59.61;100003.31;4312652;33;20032;-95
2022/04/15 02:23:04;;;;;;;;;;;;;;;7.66;59.61;100007.41;4320091;33;20039;-95
2022/04/15 02:25:29;;;;;;;;;;;;;;;7.60;59.61;100003.16;4317279;33;20310;-95
2022/04/15 02:27:54;;;;;;;;;;;;;;;7.50;59.61;100011.09;4311344;33;19994;-95
2022/04/15 02:30:20;;;;;;;;;;;;;;;7.39;59.59;100008.69;4309862;33;19980;-96
2022/04/15 02:32:45;;;;;;;;;;;;;;;7.39;59.59;100006.09;4310438;33;20000;-95
2022/04/15 02:35:10;;;;;;;;;;;;;;;7.42;59.60;100000.84;4310728;33;19984;-96
2022/04/15 02:37:35;;;;;;;;;;;;;;;7.36;59.60;100003.56;4311409;33;19979;-96
2022/04/15 02:40:01;;;;;;;;;;;;;;;7.35;59.60;99999.25;4308706;33;19988;-94
2022/04/15 02:42:27;;;;;;;;;;;;;;;7.24;59.59;99993.34;4307781;33;19988;-93
2022/04/15 02:44:52;;;;;;;;;;;;;;;7.15;59.58;99996.09;4308075;33;20649;-93
2022/04/15 02:47:18;;;;;;;;;;;;;;;7.18;59.59;99993.44;4307907;33;19984;-94
2022/04/15 02:49:43;;;;;;;;;;;;;;;7.26;59.59;99995.03;4307843;33;19988;-92
2022/04/15 02:52:08;;;;;;;;;;;;;;;7.24;59.59;99995.94;4307687;33;19988;-93
2022/04/15 02:54:33;;;;;;;;;;;;;;;7.21;59.59;99990.81;4307802;33;20578;-93
2022/04/15 02:56:59;;;;;;;;;;;;;;;7.24;59.59;99998.53;4307625;33;20015;-93
2022/04/15 02:59:24;;;;;;;;;;;;;;;7.29;59.60;99994.13;4307922;33;20351;-92
2022/04/15 03:01:49;;;;;;;;;;;;;;;7.22;59.59;99995.13;4307331;33;20031;-92
2022/04/15 03:04:15;;;;;;;;;;;;;;;7.28;59.60;99998.47;4307627;33;19988;-93
2022/04/15 03:06:40;;;;;;;;;;;;;;;6.97;59.58;99999.78;4307840;33;20048;-93
2022/04/15 03:09:05;;;;;;;;;;;;;;;7.04;59.58;99988.47;4308377;33;20028;-96
2022/04/15 03:11:32;;;;;;;;;;;;;;;7.14;59.58;99996.97;4308233;33;19988;-93
2022/04/15 03:13:57;;;;;;;;;;;;;;;6.96;59.58;100001.50;4308196;33;19980;-94
2022/04/15 03:16:22;;;;;;;;;;;;;;;6.92;59.57;100004.16;4307356;33;26828;-94
2022/04/15 03:18:48;;;;;;;;;;;;;;;6.77;59.56;99993.13;4308015;33;20028;-93
2022/04/15 03:21:13;;;;;;;;;;;;;;;6.88;59.57;99998.19;4308435;33;19992;-92
2022/04/15 03:23:39;;;;;;;;;;;;;;;6.82;59.57;99997.38;4307815;33;20028;-92
2022/04/15 03:26:04;;;;;;;;;;;;;;;6.66;59.56;100005.34;4307816;33;19980;-92
2022/04/15 03:28:30;;;;;;;;;;;;;;;6.87;59.58;99999.06;4307819;33;20039;-92
2022/04/15 03:30:55;;;;;;;;;;;;;;;6.78;59.56;100009.50;4306500;33;20031;-94
2022/04/15 03:33:20;;;;;;;;;;;;;;;6.55;59.55;100008.91;4308015;33;20006;-93
2022/04/15 03:35:45;;;;;;;;;;;;;;;6.53;59.55;99998.59;4308520;33;19984;-93
2022/04/15 03:38:11;;;;;;;;;;;;;;;6.55;59.55;99998.56;4308600;33;20282;-95
2022/04/15 03:40:36;;;;;;;;;;;;;;;6.60;59.56;100000.22;4308327;33;20012;-92
2022/04/15 03:43:03;;;;;;;;;;;;;;;6.64;59.56;99999.34;4308310;33;20037;-94
2022/04/15 03:45:29;;;;;;;;;;;;;;;6.72;59.55;99994.06;4309311;33;20028;-94
2022/04/15 03:47:54;;;;;;;;;;;;;;;6.64;59.56;99994.16;4313801;33;19984;-94
2022/04/15 03:50:19;;;;;;;;;;;;;;;6.73;59.57;99985.44;4309428;33;20251;-93
2022/04/15 03:52:46;;;;;;;;;;;;;;;6.76;59.56;99975.03;4307180;33;19999;-92
2022/04/15 03:55:15;;;;;;;;;;;;;;;6.84;59.57;99975.78;4307455;33;19992;-96
2022/04/15 03:57:41;;;;;;;;;;;;;;;6.97;59.58;99971.31;4308610;33;20575;-96
2022/04/15 04:00:07;;;;;;;;;;;;;;;7.07;59.58;99978.06;4308324;33;20015;-94
2022/04/15 04:02:32;;;;;;;;;;;;;;;7.08;59.58;99972.00;4307649;33;20584;-92
2022/04/15 04:04:57;;;;;;;;;;;;;;;7.16;59.58;99972.75;4309432;33;20019;-93
2022/04/15 04:07:23;;;;;;;;;;;;;;;7.12;59.59;99972.84;4310054;33;20000;-90
2022/04/15 04:09:48;;;;;;;;;;;;;;;7.39;59.61;99975.88;4319978;33;20028;-94
2022/04/15 04:12:13;;;;;;;;;;;;;;;7.35;59.60;99981.13;4307469;33;20329;-94
2022/04/15 04:14:38;;;;;;;;;;;;;;;7.33;59.60;99977.66;4306606;33;20341;-93
2022/04/15 04:17:07;;;;;;;;;;;;;;;7.67;59.61;99970.25;4313762;33;19984;-96
2022/04/15 04:19:38;;;;;;;;;;;;;;;7.22;59.59;99974.41;4316868;33;20677;-96
2022/04/15 04:22:05;;;;;;;;;;;;;;;7.33;59.60;99975.09;4330190;33;19993;-96
2022/04/15 04:24:31;;;;;;;;;;;;;;;7.54;59.61;99972.16;4317697;33;20020;-96
2022/04/15 04:26:59;;;;;;;;;;;;;;;7.73;59.62;99971.88;4330198;33;19964;-95
2022/04/15 04:29:30;;;;;;;;;;;;;;;7.72;59.62;99981.38;4330609;33;19972;-96
2022/04/15 04:32:02;;;;;;;;;;;;;;;7.76;59.62;99984.75;4328683;33;19949;-96
2022/04/15 04:34:35;;;;;;;;;;;;;;;7.80;59.62;99978.66;4317620;33;19953;-96
2022/04/15 04:37:10;;;;;;;;;;;;;;;7.85;59.63;99979.44;4327921;33;20100;-96
2022/04/15 04:39:36;;;;;;;;;;;;;;;8.03;59.63;99981.69;4327875;33;19982;-96
2022/04/15 04:42:07;;;;;;;;;;;;;;;8.22;59.64;99977.87;4327222;33;20011;-96
2022/04/15 04:44:37;;;;;;;;;;;;;;;8.17;59.64;99986.63;4316097;33;20032;-96
2022/04/15 04:47:10;;;;;;;;;;;;;;;8.37;59.66;99984.56;4327153;33;19961;-96
2022/04/15 04:54:52;;;;;;;;;;;;;;;8.67;59.67;99990.88;4328673;33;20028;-96
2022/04/15 04:57:38;;;;;;;;;;;;;;;8.76;59.68;99982.06;4319609;33;20243;-96
2022/04/15 05:00:06;;;;;;;;;;;;;;;8.75;59.68;99988.09;4319574;33;20016;-96
2022/04/15 05:02:36;;;;;;;;;;;;;;;9.14;59.70;99989.00;4332345;33;19956;-95
2022/04/15 05:05:05;;;;;;;;;;;;;;;9.27;59.71;99987.84;4319511;33;19963;-96
2022/04/15 05:07:34;;;;;;;;;;;;;;;9.34;59.72;99985.97;4307171;33;19968;-96
2022/04/15 05:10:04;;;;;;;;;;;;;;;9.47;59.72;99988.25;4319872;33;19964;-94
2022/04/15 05:12:54;;;;;;;;;;;;;;;9.75;59.73;99987.56;4333295;33;19991;-95
2022/04/15 05:15:20;;;;;;;;;;;;;;;9.92;59.74;99993.19;4615516;27;20017;-96
2022/04/15 05:17:58;;;;;;;;;;;;;;;10.23;59.75;99989.84;4348101;33;20028;-95
2022/04/15 05:20:26;;;;;;;;;;;;;;;10.23;59.75;99995.03;4336749;33;19960;-96
2022/04/15 05:23:00;;;;;;;;;;;;;;;10.18;59.76;99991.69;4349510;33;19966;-96
2022/04/15 05:25:28;;;;;;;;;;;;;;;10.29;59.76;99994.88;4360270;33;19976;-95
2022/04/15 05:27:58;;;;;;;;;;;;;;;10.38;59.76;99990.25;4340560;33;19992;-94
2022/04/15 05:30:23;;;;;;;;;;;;;;;10.62;59.78;100003.50;4327721;33;19960;-95
2022/04/15 05:32:48;;;;;;;;;;;;;;;10.77;59.80;99995.25;4327767;33;19983;-95
2022/04/15 05:35:14;;;;;;;;;;;;;;;10.99;59.81;99985.91;4327118;32;19983;-96
2022/04/15 05:37:39;;;;;;;;;;;;;;;11.15;59.82;99988.94;4326920;33;19995;-96
2022/04/15 05:40:05;;;;;;;;;;;;;;;11.22;59.82;99987.81;4326888;33;19992;-94
2022/04/15 05:42:30;;;;;;;;;;;;;;;11.51;59.82;99986.91;4326805;33;19987;-95
2022/04/15 05:44:58;;;;;;;;;;;;;;;11.73;59.85;99983.59;4326951;33;19980;-96
2022/04/15 05:47:24;;;;;;;;;;;;;;;11.88;59.85;99981.38;4327085;33;20018;-95
2022/04/15 05:49:49;;;;;;;;;;;;;;;12.22;59.87;99970.63;4327881;33;19984;-95
2022/04/15 05:52:14;;;;;;;;;;;;;;;12.27;59.88;99970.47;4337133;33;20018;-95
2022/04/15 05:54:39;;;;;;;;;;;;;;;12.50;59.89;99967.88;4334217;33;19980;-96
2022/04/15 05:57:05;;;;;;;;;;;;;;;12.86;59.90;99967.44;4327505;33;20030;-96
2022/04/15 05:59:30;;;;;;;;;;;;;;;13.30;59.93;99967.50;4327372;33;20280;-96
2022/04/15 06:01:55;;;;;;;;;;;;;;;13.65;59.95;99958.22;4327163;33;20320;-96
2022/04/15 06:04:21;;;;;;;;;;;;;;;13.86;59.95;99957.34;4327082;33;19990;-96
2022/04/15 06:06:47;;;;;;;;;;;;;;;13.97;59.97;99965.59;4326779;33;20023;-96
2022/04/15 06:09:12;;;;;;;;;;;;;;;14.07;59.96;99968.66;4326982;33;20000;-96
2022/04/15 06:11:39;;;;;;;;;;;;;;;14.30;59.98;99968.53;4326521;33;19993;-95
2022/04/15 06:14:06;;;;;;;;;;;;;;;14.46;59.99;99968.75;4326928;33;19988;-96
2022/04/15 06:16:32;;;;;;;;;;;;;;;14.64;60.01;99967.03;4326140;33;20047;-95
2022/04/15 06:19:00;;;;;;;;;;;;;;;14.91;60.01;99973.69;4326226;33;20000;-96
2022/04/15 06:21:26;;;;;;;;;;;;;;;15.05;60.02;99968.63;4326004;33;20753;-95
2022/04/15 06:23:51;;;;;;;;;;;;;;;15.17;60.04;99967.22;4325854;33;19990;-96
2022/04/15 06:26:16;;;;;;;;;;;;;;;15.53;60.05;99959.31;4337977;33;20047;-96
2022/04/15 06:28:42;;;;;;;;;;;;;;;15.67;60.06;99957.84;4326049;33;20003;-96
2022/04/15 06:31:07;;;;;;;;;;;;;;;15.90;60.06;99966.28;4325821;33;19994;-95
2022/04/15 06:33:32;;;;;;;;;;;;;;;16.01;60.08;99951.75;4338491;32;19984;-96
2022/04/15 06:36:01;;;;;;;;;;;;;;;16.21;60.08;99960.28;4332596;32;19968;-95
2022/04/15 06:38:26;;;;;;;;;;;;;;;16.39;60.10;99955.03;4329907;33;20526;-95
2022/04/15 06:40:51;;;;;;;;;;;;;;;16.56;60.11;99952.31;4325868;33;20015;-96
2022/04/15 06:43:16;;;;;;;;;;;;;;;16.82;60.11;99943.94;4337843;33;20006;-96
2022/04/15 06:45:42;;;;;;;;;;;;;;;17.10;60.14;99952.94;4325545;33;20301;-96
2022/04/15 06:48:07;;;;;;;;;;;;;;;17.34;60.15;99950.72;4325738;33;20022;-95
2022/04/15 06:50:32;;;;;;;;;;;;;;;17.53;60.16;99940.00;4337542;33;20294;-95
2022/04/15 06:52:58;;;;;;;;;;;;;;;17.76;60.17;99932.50;4325638;33;20266;-96
2022/04/15 06:55:23;;;;;;;;;;;;;;;17.90;60.18;99933.44;4326026;33;20043;-96
2022/04/15 06:57:48;;;;;;;;;;;;;;;18.04;60.19;99933.47;4325546;33;19995;-95
2022/04/15 07:00:14;;;;;;;;;;;;;;;18.06;60.19;99939.50;4325524;33;20334;-95
2022/04/15 07:02:39;;;;;;;;;;;;;;;18.31;60.20;99936.25;4325296;33;19979;-96
2022/04/15 07:05:09;;;;;;;;;;;;;;;18.40;60.21;99935.66;4325345;33;20019;-96
2022/04/15 07:07:35;;;;;;;;;;;;;;;18.48;60.21;99929.94;4350095;32;19999;-96
2022/04/15 07:10:00;;;;;;;;;;;;;;;18.38;60.22;99934.91;4325389;33;19983;-96
2022/04/15 07:12:25;;;;;;;;;;;;;;;18.54;60.22;99935.69;4325648;33;19984;-96
2022/04/15 07:14:51;;;;;;;;;;;;;;;18.64;60.22;99933.34;4325394;33;20051;-96
2022/04/15 07:17:16;;;;;;;;;;;;;;;18.82;60.23;99940.09;4325457;33;20341;-96
2022/04/15 07:19:41;;;;;;;;;;;;;;;18.83;60.23;99943.59;4325410;33;20000;-96
2022/04/15 07:22:06;;;;;;;;;;;;;;;18.99;60.24;99945.16;4325355;33;20034;-96
2022/04/15 07:24:33;;;;;;;;;;;;;;;19.37;60.25;99943.62;4325499;33;20007;-96
2022/04/15 07:26:58;;;;;;;;;;;;;;;19.45;60.26;99936.06;4325426;33;20013;-96
2022/04/15 07:29:26;;;;;;;;;;;;;;;19.63;60.27;99937.50;4325218;33;19987;-95
2022/04/15 07:31:51;;;;;;;;;;;;;;;19.93;60.29;99946.03;4325516;33;19970;-96
2022/04/15 07:34:16;;;;;;;;;;;;;;;20.01;60.29;99944.69;4327581;33;20015;-96
2022/04/15 07:39:07;;;;;;;;;;;;;;;20.24;60.32;99947.44;4338418;33;20036;-96
2022/04/15 07:41:36;;;;;;;;;;;;;;;20.33;60.31;99947.75;4325148;33;19991;-96
2022/04/15 07:44:08;;;;;;;;;;;;;;;20.48;60.32;99938.78;4325294;33;19995;-96
2022/04/15 07:46:34;;;;;;;;;;;;;;;20.76;60.32;99943.81;4325186;33;20404;-95
2022/04/15 07:48:59;;;;;;;;;;;;;;;20.76;60.33;99957.06;4325070;33;19998;-96
2022/04/15 07:51:24;;;;;;;;;;;;;;;21.07;60.34;99958.38;4324975;33;19984;-96
2022/04/15 07:53:53;;;;;;;;;;;;;;;21.05;60.35;99968.19;4324961;33;19995;-96
2022/04/15 07:56:20;;;;;;;;;;;;;;;21.20;60.36;99968.06;4325043;33;19991;-95
2022/04/15 07:59:14;;;;;;;;;;;;;;;21.34;60.36;99970.59;4325258;33;20082;-96
2022/04/15 08:01:39;;;;;;;;;;;;;;;21.46;60.37;99967.03;4342232;32;20011;-95
2022/04/15 08:04:05;;;;;;;;;;;;;;;21.37;60.36;99973.00;4329990;33;20000;-96
2022/04/15 08:06:30;;;;;;;;;;;;;;;21.54;60.38;99967.34;4325173;33;19991;-96
2022/04/15 08:08:56;;;;;;;;;;;;;;;21.50;60.37;99968.50;4324921;33;19983;-96
2022/04/15 08:11:21;;;;;;;;;;;;;;;21.61;60.37;99963.25;4348695;32;19994;-96
2022/04/15 08:13:52;;;;;;;;;;;;;;;21.61;60.37;99963.25;4324677;33;19992;-96
2022/04/15 08:16:17;;;;;;;;;;;;;;;21.85;60.39;99965.03;4324310;33;20019;-95
2022/04/15 08:18:43;;;;;;;;;;;;;;;21.78;60.40;99962.00;4324401;33;19983;-96
2022/04/15 08:21:11;;;;;;;;;;;;;;;21.86;60.40;99961.44;4324688;33;20327;-96
2022/04/15 08:23:38;;;;;;;;;;;;;;;21.65;60.39;99967.38;4324835;33;19991;-96
2022/04/15 08:26:11;;;;;;;;;;;;;;;21.85;60.39;99959.75;4324764;32;20337;-95
2022/04/15 08:28:37;;;;;;;;;;;;;;;21.87;60.40;99961.31;4324631;33;19995;-96
2022/04/15 08:31:07;;;;;;;;;;;;;;;22.10;60.41;99962.25;4324430;33;20023;-96
2022/04/15 08:33:42;;;;;;;;;;;;;;;22.07;60.40;99961.63;4324477;33;19995;-95
2022/04/15 08:36:07;;;;;;;;;;;;;;;22.12;60.41;99964.78;4325018;33;20018;-96
2022/04/15 08:38:33;;;;;;;;;;;;;;;22.06;60.40;99960.78;4324185;32;20254;-94
2022/04/15 08:41:01;;;;;;;;;;;;;;;21.91;60.40;99959.25;4323981;33;20242;-95
2022/04/15 08:43:30;;;;;;;;;;;;;;;22.07;60.41;99957.19;4324382;33;20294;-96
2022/04/15 08:46:00;;;;;;;;;;;;;;;21.91;60.40;99954.81;4324536;33;19991;-94
2022/04/15 08:48:28;;;;;;;;;;;;;;;21.88;60.39;99952.41;4324091;33;20713;-96
2022/04/15 08:50:54;;;;;;;;;;;;;;;22.00;60.40;99955.91;4324200;33;19983;-95
2022/04/15 08:53:36;;;;;;;;;;;;;;;21.98;60.40;99953.38;4324000;33;20066;-96
2022/04/15 08:56:12;;;;;;;;;;;;;;;21.90;60.40;99947.81;4326006;33;19992;-95
2022/04/15 08:58:45;;;;;;;;;;;;;;;21.98;60.40;99947.22;4324305;33;19992;-95
2022/04/15 09:01:10;;;;;;;;;;;;;;;22.19;60.41;99950.09;4323882;33;19990;-96
2022/04/15 09:03:44;;;;;;;;;;;;;;;22.45;60.43;99945.41;4324058;33;19987;-96
2022/04/15 09:06:13;;;;;;;;;;;;;;;22.83;60.45;99945.94;4325157;33;19995;-95
2022/04/15 09:08:57;;;;;;;;;;;;;;;23.13;60.47;99944.41;4324042;33;20010;-96
2022/04/15 09:11:24;;;;;;;;;;;;;;;23.12;60.47;99940.94;4324330;33;20000;-96
2022/04/15 09:13:55;;;;;;;;;;;;;;;23.25;60.48;99941.63;4324119;33;20011;-96
2022/04/15 09:16:24;;;;;;;;;;;;;;;22.98;60.46;99935.06;4321557;33;19960;-95
2022/04/15 09:18:52;;;;;;;;;;;;;;;22.95;60.46;99926.38;4325042;33;19980;-94
2022/04/15 09:21:28;;;;;;;;;;;;;;;22.91;60.45;99926.72;4324048;33;19979;-95
2022/04/15 09:23:54;;;;;;;;;;;;;;;22.99;60.45;99928.78;4322970;33;20010;-96
2022/04/15 09:26:19;;;;;;;;;;;;;;;23.28;60.47;99930.75;4327929;33;20349;-94
2022/04/15 09:28:47;;;;;;;;;;;;;;;23.19;60.47;99930.66;4322262;33;19998;-96
2022/04/15 09:31:18;;;;;;;;;;;;;;;23.11;60.47;99938.41;4323808;33;19992;-95
2022/04/15 09:33:50;;;;;;;;;;;;;;;23.18;60.47;99935.09;4323784;33;19968;-94
2022/04/15 09:36:23;;;;;;;;;;;;;;;23.04;60.46;99931.91;4335531;33;20652;-95
2022/04/15 09:38:53;;;;;;;;;;;;;;;23.10;60.47;99934.91;4323478;33;19995;-96
2022/04/15 09:41:32;;;;;;;;;;;;;;;22.89;60.45;99939.28;4323470;33;19984;-96
2022/04/15 09:43:58;;;;;;;;;;;;;;;22.73;60.45;99934.34;4335402;33;20345;-96
2022/04/15 09:46:30;;;;;;;;;;;;;;;22.73;60.45;99931.69;4323157;33;20603;-96
2022/04/15 09:49:07;;;;;;;;;;;;;;;22.85;60.45;99941.34;4323132;33;20030;-95
2022/04/15 09:51:48;;;;;;;;;;;;;;;22.59;60.44;99935.41;4322998;33;19956;-96
2022/04/15 09:54:31;;;;;;;;;;;;;;;22.47;60.43;99935.53;4335140;33;19992;-96
2022/04/15 09:56:59;;;;;;;;;;;;;;;22.42;60.44;99935.03;4323082;33;19983;-96
2022/04/15 09:59:25;;;;;;;;;;;;;;;22.41;60.43;99928.03;4322761;33;19992;-96
2022/04/15 10:02:03;;;;;;;;;;;;;;;22.54;60.45;99932.28;4322979;33;19991;-96
2022/04/15 10:04:28;;;;;;;;;;;;;;;22.57;60.44;99925.87;4323295;33;20011;-96
2022/04/15 10:06:56;;;;;;;;;;;;;;;22.67;60.45;99905.59;4322920;33;20333;-96
2022/04/15 10:09:26;;;;;;;;;;;;;;;22.87;60.46;99910.19;4335156;33;19998;-96
2022/04/15 10:11:52;;;;;;;;;;;;;;;22.86;60.46;99912.97;4323186;33;19980;-96
2022/04/15 10:14:23;;;;;;;;;;;;;;;22.92;60.45;99905.34;4335397;33;20000;-96
2022/04/15 10:16:48;;;;;;;;;;;;;;;23.14;60.47;99908.94;4323738;33;19992;-95
2022/04/15 10:19:20;;;;;;;;;;;;;;;23.19;60.47;99907.63;4323426;33;19984;-96
2022/04/15 10:21:49;;;;;;;;;;;;;;;23.19;60.47;99912.91;4323316;33;19990;-96
2022/04/15 10:24:32;;;;;;;;;;;;;;;23.45;60.48;99918.75;4323946;33;20004;-96
2022/04/15 10:26:59;;;;;;;;;;;;;;;23.47;60.48;99915.97;4326087;33;19987;-94
2022/04/15 10:29:24;;;;;;;;;;;;;;;23.63;60.49;99927.00;4336547;33;19975;-96
2022/04/15 10:31:57;;;;;;;;;;;;;;;23.57;60.49;99927.53;4323097;33;19995;-96
2022/04/15 10:34:23;;;;;;;;;;;;;;;23.73;60.50;99927.94;4335436;33;20035;-96
2022/04/15 10:36:50;;;;;;;;;;;;;;;23.86;60.50;99928.59;4322837;33;19964;-96
2022/04/15 10:39:23;;;;;;;;;;;;;;;24.17;60.52;99931.31;4335121;33;20000;-96
2022/04/15 10:41:50;;;;;;;;;;;;;;;24.32;60.53;99935.34;4323651;33;19984;-96
2022/04/15 10:44:26;;;;;;;;;;;;;;;24.48;60.53;99933.03;4334801;33;20105;-95
2022/04/15 10:46:51;;;;;;;;;;;;;;;24.13;60.52;99935.19;4322544;33;20018;-95
2022/04/15 10:49:26;;;;;;;;;;;;;;;23.77;60.50;99937.34;4322741;33;20289;-96
2022/04/15 10:51:58;;;;;;;;;;;;;;;23.81;60.51;99941.44;4323694;33;19995;-96
2022/04/15 10:54:36;;;;;;;;;;;;;;;23.89;60.52;99932.78;4322778;33;19999;-96
2022/04/15 10:57:06;;;;;;;;;;;;;;;24.03;60.52;99927.16;4334446;33;20002;-95
2022/04/15 11:02:25;;;;;;;;;;;;;;;24.09;60.52;99921.31;4335247;33;20002;-96
2022/04/15 11:04:53;;;;;;;;;;;;;;;23.88;60.51;99921.31;4330387;33;19968;-96
2022/04/15 11:07:28;;;;;;;;;;;;;;;23.92;60.51;99924.59;4325036;33;20043;-96
2022/04/15 11:09:58;;;;;;;;;;;;;;;24.01;60.51;99921.12;4322976;33;19996;-96
2022/04/15 11:12:37;;;;;;;;;;;;;;;24.11;60.52;99922.03;4323156;33;20326;-96
2022/04/15 11:15:02;;;;;;;;;;;;;;;23.96;60.51;99926.00;4323458;33;20039;-96
2022/04/15 11:17:38;;;;;;;;;;;;;;;23.81;60.51;99920.16;4322732;33;20015;-96
2022/04/15 11:20:05;;;;;;;;;;;;;;;23.68;60.50;99926.66;4335144;33;20000;-96
2022/04/15 11:22:37;;;;;;;;;;;;;;;23.21;60.48;99934.88;4322903;33;20333;-96
2022/04/15 11:25:02;;;;;;;;;;;;;;;22.88;60.45;99945.56;4322429;33;19983;-95
2022/04/15 11:27:30;;;;;;;;;;;;;;;22.61;60.45;99951.22;4322417;33;19988;-96
2022/04/15 11:29:56;;;;;;;;;;;;;;;22.42;60.44;99940.34;4322838;33;20022;-96
2022/04/15 11:32:23;;;;;;;;;;;;;;;22.42;60.44;99940.34;4322145;33;19975;-96
2022/04/15 11:34:56;;;;;;;;;;;;;;;22.31;60.43;99950.00;4323050;33;20008;-96
2022/04/15 11:37:24;;;;;;;;;;;;;;;22.38;60.44;99958.31;4323135;33;20006;-96
2022/04/15 11:39:49;;;;;;;;;;;;;;;22.30;60.42;99958.91;4322603;33;19998;-95
2022/04/15 11:42:14;;;;;;;;;;;;;;;22.17;60.43;99952.00;4322360;33;19980;-95
2022/04/15 11:44:40;;;;;;;;;;;;;;;21.93;60.41;99960.00;4322416;33;20313;-95
2022/04/15 11:47:25;;;;;;;;;;;;;;;21.65;60.40;99959.41;4322368;33;20040;-96
2022/04/15 11:49:51;;;;;;;;;;;;;;;21.45;60.38;99971.47;4324150;33;19983;-96
2022/04/15 11:52:22;;;;;;;;;;;;;;;21.42;60.38;99973.50;4321470;33;20627;-94
2022/04/15 11:54:47;;;;;;;;;;;;;;;21.37;60.39;99968.56;4322106;33;20023;-96
2022/04/15 11:57:13;;;;;;;;;;;;;;;21.30;60.38;99969.97;4321956;33;20006;-96
2022/04/15 11:59:38;;;;;;;;;;;;;;;21.01;60.36;99979.13;4322166;33;20006;-95
2022/04/15 12:02:04;;;;;;;;;;;;;;;20.92;60.36;99993.00;4322127;33;19987;-95
2022/04/15 12:04:29;;;;;;;;;;;;;;;20.89;60.35;99999.38;4322098;33;19988;-96
2022/04/15 12:06:54;;;;;;;;;;;;;;;20.92;60.36;99995.66;4322264;33;20362;-96
2022/04/15 12:09:20;;;;;;;;;;;;;;;20.91;60.35;100000.09;4322307;33;20279;-96
2022/04/15 12:11:45;;;;;;;;;;;;;;;20.84;60.34;100001.50;4321757;33;19972;-96
2022/04/15 12:14:11;;;;;;;;;;;;;;;20.73;60.34;100002.25;4322448;33;20022;-94
2022/04/15 12:16:36;;;;;;;;;;;;;;;20.48;60.34;100002.25;4322960;33;19966;-95
2022/04/15 12:19:03;;;;;;;;;;;;;;;20.05;60.31;100009.56;4321975;33;20015;-96
2022/04/15 12:21:31;;;;;;;;;;;;;;;19.56;60.28;100003.09;4321885;33;19976;-95
2022/04/15 12:24:10;;;;;;;;;;;;;;;19.53;60.29;99995.38;4321955;33;20669;-95
2022/04/15 12:26:44;;;;;;;;;;;;;;;19.56;60.28;99978.47;4321584;33;20043;-95
2022/04/15 12:31:56;;;;;;;;;;;;;;;18.89;60.24;99994.16;4334621;33;19959;-96
2022/04/15 12:34:39;;;;;;;;;;;;;;;18.65;60.23;99991.25;4322074;33;20337;-94
2022/04/15 12:37:05;;;;;;;;;;;;;;;18.49;60.23;100001.03;4300562;33;808098;-94
2022/04/15 12:39:31;;;;;;;;;;;;;;;18.58;60.23;99982.00;4333921;33;20325;-94
2022/04/15 12:41:56;;;;;;;;;;;;;;;18.46;60.22;99995.94;4321352;33;20056;-94
2022/04/15 12:44:29;;;;;;;;;;;;;;;18.41;60.22;100013.78;4320838;33;19984;-93
2022/04/15 12:46:55;;;;;;;;;;;;;;;18.48;60.23;100009.03;4321618;33;20043;-93
2022/04/15 12:49:21;;;;;;;;;;;;;;;18.45;60.23;100019.72;4322180;33;19988;-93
2022/04/15 12:51:46;;;;;;;;;;;;;;;18.45;60.23;100019.72;4321071;33;20684;-93
2022/04/15 12:54:11;;;;;;;;;;;;;;;18.38;60.22;100009.56;4320819;33;20321;-94
2022/04/15 12:56:37;;;;;;;;;;;;;;;18.39;60.23;100002.50;4321078;33;20023;-94
2022/04/15 12:59:05;;;;;;;;;;;;;;;18.69;60.24;99984.88;4321182;33;19988;-94
2022/04/15 13:01:31;;;;;;;;;;;;;;;18.63;60.24;99985.22;4321487;33;19995;-94
2022/04/15 13:03:56;;;;;;;;;;;;;;;18.75;60.24;99980.16;4323413;33;20274;-93